Time;durP1;ratioP1;P1;durP2;ratioP2;P2;SDS_P1;SDS_P2;PMS_P1;PMS_P2;Temp;Humidity;BMP_temperature;BMP_pressure;BME280_temperature;BME280_humidity;BME280_pressure;Samples;Min_cycle;Max_cycle;Signal;HPM_P1;HPM_P2
2022/11/21 00:00:33;;;;;;;1.60;1.30;;;6.50;99.90;;;;;;5013946;28;20545;-57
2022/11/21 00:03:01;;;;;;;1.97;1.67;;;6.50;99.90;;;;;;5013527;28;21003;-57
2022/11/21 00:05:29;;;;;;;2.53;1.43;;;6.50;99.90;;;;;;5013867;28;20481;-57
2022/11/21 00:07:58;;;;;;;1.40;1.30;;;6.50;99.90;;;;;;5013825;28;20475;-57
2022/11/21 00:10:26;;;;;;;1.60;1.50;;;6.50;99.90;;;;;;5013340;28;20517;-57
2022/11/21 00:12:55;;;;;;;1.70;1.60;;;6.50;99.90;;;;;;5013821;28;20546;-57
2022/11/21 00:15:22;;;;;;;1.50;1.40;;;6.60;99.90;;;;;;5013653;28;20479;-57
2022/11/21 00:17:49;;;;;;;1.50;1.40;;;6.50;99.90;;;;;;5013420;28;20490;-57
2022/11/21 00:20:17;;;;;;;1.73;1.30;;;6.60;99.90;;;;;;5017615;28;20530;-57
2022/11/21 00:22:44;;;;;;;4.10;1.43;;;6.40;99.90;;;;;;5017256;28;20962;-57
2022/11/21 00:25:14;;;;;;;1.90;1.60;;;6.30;99.90;;;;;;5017480;28;20467;-57
2022/11/21 00:27:41;;;;;;;1.30;1.20;;;6.40;99.90;;;;;;5017495;28;20526;-57
2022/11/21 00:30:14;;;;;;;1.40;1.30;;;6.40;99.90;;;;;;5017135;28;20800;-56
2022/11/21 00:32:41;;;;;;;1.40;1.30;;;6.60;99.90;;;;;;5017125;28;20906;-56
2022/11/21 00:35:09;;;;;;;2.10;1.20;;;6.40;99.90;;;;;;5017307;28;20482;-57
2022/11/21 00:37:36;;;;;;;2.27;1.30;;;6.40;99.90;;;;;;5017250;28;20911;-57
2022/11/21 00:40:04;;;;;;;1.30;1.20;;;6.30;99.90;;;;;;5016931;28;20887;-57
2022/11/21 00:42:33;;;;;;;1.63;1.40;;;6.30;99.90;;;;;;5017062;28;20554;-57
2022/11/21 00:45:00;;;;;;;1.60;1.50;;;6.40;99.90;;;;;;5016777;28;20507;-57
2022/11/21 00:47:27;;;;;;;1.40;1.30;;;6.30;99.90;;;;;;5016775;28;20479;-57
2022/11/21 00:49:54;;;;;;;1.30;1.20;;;6.30;99.90;;;;;;5017067;28;20451;-57
2022/11/21 00:52:22;;;;;;;2.13;1.40;;;6.30;99.90;;;;;;5017006;28;20534;-57
2022/11/21 00:54:49;;;;;;;1.47;1.37;;;6.30;99.90;;;;;;5016909;28;20471;-57
2022/11/21 00:57:16;;;;;;;1.33;1.23;;;6.20;99.90;;;;;;5016538;28;20536;-57
2022/11/21 00:59:45;;;;;;;1.30;1.20;;;6.20;99.90;;;;;;5016582;28;20932;-57
2022/11/21 01:02:12;;;;;;;1.43;1.33;;;6.20;99.90;;;;;;5016542;28;20541;-57
2022/11/21 01:04:40;;;;;;;1.30;1.20;;;6.10;99.90;;;;;;5016657;28;20463;-57
2022/11/21 01:07:07;;;;;;;1.30;1.20;;;5.90;99.90;;;;;;5016771;28;20475;-57
2022/11/21 01:09:34;;;;;;;1.83;1.63;;;6.00;99.90;;;;;;5016155;28;20515;-57
2022/11/21 01:12:01;;;;;;;1.63;1.10;;;5.90;99.90;;;;;;5016686;28;20485;-57
2022/11/21 01:14:29;;;;;;;1.77;1.47;;;6.00;99.90;;;;;;5016545;28;20479;-57
2022/11/21 01:16:57;;;;;;;1.77;1.50;;;6.00;99.90;;;;;;5016478;28;20486;-57
2022/11/21 01:19:25;;;;;;;1.20;1.10;;;6.10;99.90;;;;;;5016404;28;20546;-57
2022/11/21 01:21:52;;;;;;;1.37;1.27;;;6.00;99.90;;;;;;5016382;28;20487;-57
2022/11/21 01:24:19;;;;;;;1.40;1.27;;;5.90;99.90;;;;;;5016426;28;20494;-57
2022/11/21 01:26:47;;;;;;;2.10;1.77;;;5.90;99.90;;;;;;5016569;28;20463;-57
2022/11/21 01:29:15;;;;;;;1.30;1.20;;;6.00;99.90;;;;;;5016055;28;20517;-57
2022/11/21 01:31:42;;;;;;;1.77;1.60;;;6.00;99.90;;;;;;5016531;28;20450;-57
2022/11/21 01:34:11;;;;;;;1.50;1.40;;;5.90;99.90;;;;;;5015926;28;20470;-57
2022/11/21 01:36:38;;;;;;;1.63;1.40;;;6.00;99.90;;;;;;5015798;28;20483;-57
2022/11/21 01:39:07;;;;;;;1.53;1.43;;;5.90;99.90;;;;;;5015871;28;21004;-57
2022/11/21 01:41:36;;;;;;;2.23;1.30;;;6.00;99.90;;;;;;5015841;28;20946;-56
2022/11/21 01:44:10;;;;;;;1.97;1.30;;;6.00;99.90;;;;;;5016065;28;20478;-57
2022/11/21 01:46:37;;;;;;;2.07;1.47;;;6.00;99.90;;;;;;5015702;28;20975;-57
2022/11/21 01:49:08;;;;;;;1.67;1.50;;;5.80;99.90;;;;;;5015663;28;20953;-57
2022/11/21 01:51:40;;;;;;;1.57;1.47;;;5.70;99.90;;;;;;5015913;28;20482;-57
2022/11/21 01:54:13;;;;;;;1.60;1.50;;;5.60;99.90;;;;;;5016019;28;20498;-57
2022/11/21 01:56:45;;;;;;;1.40;1.30;;;5.50;99.90;;;;;;5015725;28;20514;-57
2022/11/21 01:59:17;;;;;;;5.40;1.67;;;5.50;99.90;;;;;;5015500;28;20510;-57
2022/11/21 02:01:46;;;;;;;2.13;1.63;;;5.50;99.90;;;;;;5015464;28;20435;-57
2022/11/21 02:04:14;;;;;;;1.47;1.33;;;5.60;99.90;;;;;;5015381;28;20495;-57
2022/11/21 02:06:43;;;;;;;1.73;1.53;;;5.70;99.90;;;;;;5015542;28;20478;-57
2022/11/21 02:09:10;;;;;;;2.00;1.80;;;5.70;99.90;;;;;;5015337;28;20880;-57
2022/11/21 02:11:42;;;;;;;1.50;1.40;;;5.70;99.90;;;;;;5015294;28;20435;-57
2022/11/21 02:14:11;;;;;;;2.83;1.93;;;5.70;99.90;;;;;;5016110;28;20474;-57
2022/11/21 02:16:39;;;;;;;1.50;1.40;;;5.70;99.90;;;;;;5015318;28;20541;-57
2022/11/21 02:19:10;;;;;;;1.77;1.50;;;5.70;99.90;;;;;;5015461;28;20475;-57
2022/11/21 02:21:52;;;;;;;4.13;1.60;;;5.70;99.90;;;;;;5015134;28;20514;-57
2022/11/21 02:24:28;;;;;;;2.23;1.40;;;5.80;99.90;;;;;;5015077;28;20436;-57
2022/11/21 02:26:58;;;;;;;3.77;1.93;;;5.70;99.90;;;;;;5015366;28;20427;-57
2022/11/21 02:29:25;;;;;;;2.03;1.50;;;5.50;99.90;;;;;;5015182;28;20954;-59
2022/11/21 02:31:53;;;;;;;1.77;1.57;;;5.50;99.90;;;;;;5014867;28;20478;-57
2022/11/21 02:34:20;;;;;;;4.20;1.80;;;5.50;99.90;;;;;;5014993;28;20459;-57
2022/11/21 02:36:48;;;;;;;1.90;1.77;;;5.50;99.90;;;;;;5014673;28;20565;-57
2022/11/21 02:39:20;;;;;;;2.07;1.53;;;5.40;99.90;;;;;;5014765;28;20446;-57
2022/11/21 02:41:58;;;;;;;1.97;1.47;;;5.40;99.90;;;;;;5014177;28;20441;-57
2022/11/21 02:44:29;;;;;;;1.60;1.27;;;5.40;99.90;;;;;;5014992;28;20427;-57
2022/11/21 02:46:57;;;;;;;1.73;1.63;;;5.50;99.90;;;;;;5014629;28;20479;-57
2022/11/21 02:49:38;;;;;;;1.43;1.33;;;5.40;99.90;;;;;;5014573;28;20501;-57
2022/11/21 02:52:05;;;;;;;1.83;1.50;;;5.30;99.90;;;;;;5014872;28;20430;-57
2022/11/21 02:54:32;;;;;;;1.90;1.50;;;5.40;99.90;;;;;;5014411;28;20447;-57
2022/11/21 02:57:01;;;;;;;1.50;1.40;;;5.30;99.90;;;;;;5014766;28;20522;-57
2022/11/21 02:59:28;;;;;;;2.17;1.40;;;5.40;99.90;;;;;;5014737;28;20506;-57
2022/11/21 03:01:58;;;;;;;1.30;1.20;;;5.40;99.90;;;;;;5014357;28;20487;-57
2022/11/21 03:04:25;;;;;;;1.70;1.60;;;5.50;99.90;;;;;;5014324;28;20459;-57
2022/11/21 03:06:53;;;;;;;1.30;1.20;;;5.50;99.90;;;;;;5014281;28;20475;-57
2022/11/21 03:09:20;;;;;;;1.40;1.30;;;5.50;99.90;;;;;;5014035;28;20510;-57
2022/11/21 03:11:47;;;;;;;1.40;1.30;;;5.40;99.90;;;;;;5014509;28;20486;-57
2022/11/21 03:14:16;;;;;;;1.50;1.40;;;5.40;99.90;;;;;;5014146;28;20933;-57
2022/11/21 03:16:43;;;;;;;1.40;1.30;;;5.50;99.90;;;;;;5014000;28;20581;-57
2022/11/21 03:19:10;;;;;;;1.30;1.20;;;5.50;99.90;;;;;;5014416;28;20447;-57
2022/11/21 03:21:38;;;;;;;1.37;1.27;;;5.40;99.90;;;;;;5014369;28;20479;-57
2022/11/21 03:24:06;;;;;;;1.40;1.30;;;5.50;99.90;;;;;;5014000;28;20505;-57
2022/11/21 03:26:33;;;;;;;1.37;1.27;;;5.50;99.90;;;;;;5013889;28;20555;-57
2022/11/21 03:29:01;;;;;;;1.30;1.20;;;5.40;99.90;;;;;;5014290;28;20475;-57
2022/11/21 03:31:29;;;;;;;1.40;1.20;;;5.40;99.90;;;;;;5014748;28;20447;-57
2022/11/21 03:33:56;;;;;;;2.03;1.43;;;5.40;99.90;;;;;;5013778;28;20447;-57
2022/11/21 03:36:24;;;;;;;1.20;1.10;;;5.50;99.90;;;;;;5014255;28;20467;-57
2022/11/21 03:38:51;;;;;;;2.50;1.40;;;5.40;99.90;;;;;;5013801;28;20812;-56
2022/11/21 03:41:30;;;;;;;1.53;1.30;;;5.50;99.90;;;;;;5014120;28;20808;-57
2022/11/21 03:43:58;;;;;;;1.60;1.50;;;5.60;99.90;;;;;;5014121;28;20466;-57
2022/11/21 03:46:26;;;;;;;1.30;1.20;;;5.60;99.90;;;;;;5013686;28;20499;-57
2022/11/21 03:48:54;;;;;;;1.93;1.40;;;5.70;99.90;;;;;;5013718;28;20541;-59
2022/11/21 03:51:22;;;;;;;1.20;1.10;;;5.70;99.90;;;;;;5013696;28;20479;-57
2022/11/21 03:53:50;;;;;;;1.60;1.50;;;5.70;99.90;;;;;;5017154;28;20491;-58
2022/11/21 03:56:17;;;;;;;2.03;1.40;;;5.70;99.90;;;;;;5017716;28;20554;-57
2022/11/21 03:58:49;;;;;;;2.63;1.60;;;5.80;99.90;;;;;;5017688;28;20486;-57
2022/11/21 04:01:17;;;;;;;1.20;1.10;;;5.80;99.90;;;;;;5018013;28;20550;-56
2022/11/21 04:03:45;;;;;;;1.30;1.20;;;5.90;99.90;;;;;;5017819;28;20857;-57
2022/11/21 04:06:15;;;;;;;1.47;1.30;;;5.80;99.90;;;;;;5018047;28;20969;-57
2022/11/21 04:08:43;;;;;;;1.67;1.20;;;5.80;99.90;;;;;;5017569;28;20534;-57
2022/11/21 04:11:10;;;;;;;1.57;1.30;;;6.00;99.90;;;;;;5017376;28;20510;-57
2022/11/21 04:13:38;;;;;;;2.80;1.40;;;5.80;99.90;;;;;;5017495;28;20486;-57
2022/11/21 04:16:05;;;;;;;1.40;1.30;;;5.90;99.90;;;;;;5017671;28;20849;-59
2022/11/21 04:18:34;;;;;;;1.50;1.40;;;6.00;99.90;;;;;;5017324;28;20483;-59
2022/11/21 04:21:03;;;;;;;1.93;1.70;;;6.00;99.90;;;;;;5017317;28;20486;-57
2022/11/21 04:23:32;;;;;;;1.50;1.30;;;6.00;99.90;;;;;;5017267;28;20509;-59
2022/11/21 04:26:00;;;;;;;1.30;1.20;;;6.00;99.90;;;;;;5017491;28;20872;-59
2022/11/21 04:28:28;;;;;;;1.30;1.20;;;6.00;99.90;;;;;;5017196;28;20490;-59
2022/11/21 04:30:55;;;;;;;1.97;1.20;;;6.00;99.90;;;;;;5017182;28;20981;-59
2022/11/21 04:33:22;;;;;;;1.30;1.20;;;6.00;99.90;;;;;;5017138;28;20864;-59
2022/11/21 04:35:49;;;;;;;1.43;1.33;;;6.10;99.90;;;;;;5017377;28;20969;-58
2022/11/21 04:38:17;;;;;;;2.07;1.33;;;6.10;99.90;;;;;;5017275;28;20576;-58
2022/11/21 04:40:45;;;;;;;1.40;1.30;;;6.00;99.90;;;;;;5016929;28;20945;-58
2022/11/21 04:43:13;;;;;;;1.60;1.50;;;6.00;99.90;;;;;;5017157;28;20450;-58
2022/11/21 04:45:40;;;;;;;1.27;1.17;;;6.00;99.90;;;;;;5016792;28;20509;-59
2022/11/21 04:48:07;;;;;;;5.20;1.77;;;5.90;99.90;;;;;;5016807;28;20884;-59
2022/11/21 04:50:34;;;;;;;1.30;1.20;;;6.00;99.90;;;;;;5017059;28;20866;-59
2022/11/21 04:53:02;;;;;;;1.93;1.70;;;6.00;99.90;;;;;;5016736;28;20451;-58
2022/11/21 04:55:31;;;;;;;2.20;1.40;;;6.00;99.90;;;;;;5016949;28;20474;-59
2022/11/21 04:58:00;;;;;;;1.50;1.40;;;6.10;99.90;;;;;;5016574;28;21055;-58
2022/11/21 05:00:28;;;;;;;1.30;1.20;;;6.00;99.90;;;;;;5017715;28;20455;-59
2022/11/21 05:02:55;;;;;;;1.60;1.50;;;5.90;99.90;;;;;;5016563;28;20447;-58
2022/11/21 05:05:22;;;;;;;2.43;1.57;;;5.90;99.90;;;;;;5016217;28;20517;-58
2022/11/21 05:07:49;;;;;;;1.53;1.43;;;5.90;99.90;;;;;;5016769;28;20509;-58
2022/11/21 05:10:17;;;;;;;1.50;1.40;;;5.90;99.90;;;;;;5016200;28;20515;-58
2022/11/21 05:15:30;;;;;;;2.17;1.83;;;5.90;99.90;;;;;;5016679;28;20446;-58
2022/11/21 05:17:59;;;;;;;1.50;1.40;;;6.00;99.90;;;;;;5016196;28;20479;-58
2022/11/21 05:20:27;;;;;;;2.93;1.33;;;6.10;99.90;;;;;;5016170;28;20450;-58
2022/11/21 05:22:54;;;;;;;1.67;1.57;;;6.00;99.90;;;;;;5016131;28;20450;-58
2022/11/21 05:25:21;;;;;;;1.60;1.50;;;6.00;99.90;;;;;;5016657;28;20557;-59
2022/11/21 05:27:48;;;;;;;1.67;1.30;;;6.00;99.90;;;;;;5016124;28;20497;-58
2022/11/21 05:30:16;;;;;;;2.37;1.40;;;6.00;99.90;;;;;;5016026;28;20530;-58
2022/11/21 05:32:45;;;;;;;2.60;1.50;;;5.90;99.90;;;;;;5015942;28;20545;-58
2022/11/21 05:35:12;;;;;;;2.00;1.80;;;6.00;99.90;;;;;;5016379;28;20490;-59
2022/11/21 05:37:40;;;;;;;1.90;1.70;;;6.00;99.90;;;;;;5016146;28;20506;-58
2022/11/21 05:40:08;;;;;;;2.00;1.60;;;6.00;99.90;;;;;;5015878;28;20451;-59
2022/11/21 05:45:23;;;;;;;1.83;1.73;;;6.00;99.90;;;;;;5015833;28;20454;-57
2022/11/21 05:47:52;;;;;;;1.40;1.30;;;5.80;99.90;;;;;;5015717;28;20482;-57
2022/11/21 05:50:19;;;;;;;1.60;1.50;;;5.90;99.90;;;;;;5015641;28;20451;-58
2022/11/21 05:52:47;;;;;;;3.53;1.80;;;5.90;99.90;;;;;;5015544;28;20482;-59
2022/11/21 05:55:14;;;;;;;2.80;1.60;;;5.90;99.90;;;;;;5015781;28;20533;-56
2022/11/21 05:57:42;;;;;;;3.10;1.60;;;6.00;99.90;;;;;;5015755;28;20590;-58
2022/11/21 06:00:10;;;;;;;4.40;1.87;;;5.90;99.90;;;;;;5015837;28;20915;-58
2022/11/21 06:05:23;;;;;;;1.70;1.60;;;5.80;99.90;;;;;;5015894;28;20936;-58
2022/11/21 06:07:51;;;;;;;3.07;1.90;;;5.90;99.90;;;;;;5015271;28;21004;-58
2022/11/21 06:10:18;;;;;;;2.33;1.73;;;6.00;99.90;;;;;;5015009;28;20974;-56
2022/11/21 06:12:45;;;;;;;2.73;1.80;;;6.00;99.90;;;;;;5015100;28;20447;-58
2022/11/21 06:15:12;;;;;;;4.60;2.00;;;6.10;99.90;;;;;;5014800;28;20514;-59
2022/11/21 06:17:40;;;;;;;4.33;1.83;;;6.10;99.90;;;;;;5014572;28;20565;-58
2022/11/21 06:20:09;;;;;;;4.17;2.10;;;6.00;99.90;;;;;;5015026;28;20545;-58
2022/11/21 06:22:37;;;;;;;2.20;1.50;;;6.00;99.90;;;;;;5015217;28;20454;-58
2022/11/21 06:25:05;;;;;;;1.97;1.87;;;6.00;99.90;;;;;;5015178;28;20510;-58
2022/11/21 06:27:32;;;;;;;2.27;1.70;;;6.10;99.90;;;;;;5014947;28;21025;-58
2022/11/21 06:30:00;;;;;;;2.17;1.97;;;6.20;99.90;;;;;;5015140;28;20475;-58
2022/11/21 06:32:27;;;;;;;3.80;1.97;;;6.20;99.90;;;;;;5014779;28;20506;-57
2022/11/21 06:34:54;;;;;;;3.00;2.20;;;6.20;99.90;;;;;;5014714;28;20505;-58
2022/11/21 06:37:22;;;;;;;2.40;2.17;;;6.30;99.90;;;;;;5014898;28;20789;-59
2022/11/21 06:39:50;;;;;;;2.70;2.30;;;6.30;99.90;;;;;;5015026;28;20927;-56
2022/11/21 06:42:18;;;;;;;3.70;2.57;;;6.40;99.90;;;;;;5014315;28;20455;-57
2022/11/21 06:44:45;;;;;;;2.43;2.20;;;6.30;99.90;;;;;;5014568;28;20847;-57
2022/11/21 06:47:12;;;;;;;3.67;2.07;;;6.30;99.90;;;;;;5014833;28;20451;-57
2022/11/21 06:49:39;;;;;;;2.80;2.17;;;6.30;99.90;;;;;;5014444;28;20546;-57
2022/11/21 06:52:07;;;;;;;2.23;2.00;;;6.30;99.90;;;;;;5014829;28;21021;-59
2022/11/21 06:54:34;;;;;;;2.70;2.50;;;6.30;99.90;;;;;;5014135;28;21008;-59
2022/11/21 06:57:02;;;;;;;4.60;2.60;;;6.30;99.90;;;;;;5014269;28;20937;-58
2022/11/21 06:59:30;;;;;;;4.80;2.37;;;6.30;99.90;;;;;;5014219;28;20577;-58
2022/11/21 07:01:57;;;;;;;3.87;2.23;;;6.30;99.90;;;;;;5014540;28;20876;-58
2022/11/21 07:04:24;;;;;;;2.43;2.23;;;6.30;99.90;;;;;;5014175;28;20478;-58
2022/11/21 07:06:55;;;;;;;4.90;2.20;;;6.20;99.90;;;;;;5014158;28;20470;-58
2022/11/21 07:09:22;;;;;;;2.60;2.23;;;6.10;99.90;;;;;;5013990;28;20570;-58
2022/11/21 07:11:49;;;;;;;2.40;2.20;;;6.10;99.90;;;;;;5014354;28;20432;-58
2022/11/21 07:14:18;;;;;;;4.00;2.30;;;6.10;99.90;;;;;;5013689;28;20505;-58
2022/11/21 07:16:45;;;;;;;3.90;2.20;;;6.00;99.90;;;;;;5014316;28;20541;-58
2022/11/21 07:19:13;;;;;;;2.50;2.23;;;6.00;99.90;;;;;;5013734;28;20560;-58
2022/11/21 07:21:41;;;;;;;2.30;1.90;;;6.10;99.90;;;;;;5013757;28;20455;-58
2022/11/21 07:24:09;;;;;;;4.40;2.30;;;6.00;99.90;;;;;;5014273;28;20455;-58
2022/11/21 07:26:36;;;;;;;2.37;2.17;;;6.10;99.90;;;;;;5013908;28;20498;-58
2022/11/21 07:29:03;;;;;;;2.70;2.10;;;6.10;99.90;;;;;;5013645;28;20447;-57
2022/11/21 07:31:32;;;;;;;2.07;1.97;;;6.10;99.90;;;;;;5013695;28;20455;-58
2022/11/21 07:33:59;;;;;;;4.53;2.67;;;6.10;99.90;;;;;;5013466;28;20485;-56
2022/11/21 07:36:27;;;;;;;3.90;2.40;;;6.10;99.90;;;;;;5013495;28;20475;-56
2022/11/21 07:38:54;;;;;;;2.40;2.00;;;6.00;99.90;;;;;;5013722;28;20487;-57
2022/11/21 07:41:21;;;;;;;2.87;2.30;;;6.00;99.90;;;;;;5013310;28;20938;-59
2022/11/21 07:43:48;;;;;;;2.63;2.20;;;5.90;99.90;;;;;;5013418;28;20454;-58
2022/11/21 07:46:16;;;;;;;2.80;2.40;;;6.00;99.90;;;;;;5013523;28;20521;-56
2022/11/21 07:48:44;;;;;;;2.80;2.60;;;6.00;99.90;;;;;;5013583;28;20539;-57
2022/11/21 07:51:12;;;;;;;2.80;2.60;;;6.10;99.90;;;;;;5013520;28;20546;-58
2022/11/21 07:53:39;;;;;;;3.13;2.37;;;6.10;99.90;;;;;;5013908;28;20446;-59
2022/11/21 07:56:08;;;;;;;2.23;2.03;;;6.20;99.90;;;;;;5013181;28;20471;-58
2022/11/21 07:58:35;;;;;;;4.80;2.30;;;6.10;99.90;;;;;;5013050;28;20478;-58
2022/11/21 08:01:04;;;;;;;7.00;2.13;;;6.10;99.90;;;;;;5013222;28;20454;-57
2022/11/21 08:03:32;;;;;;;6.90;2.70;;;6.10;99.90;;;;;;5013044;28;20956;-58
2022/11/21 08:06:02;;;;;;;4.17;2.60;;;6.20;99.90;;;;;;5013218;28;20478;-58
2022/11/21 08:08:30;;;;;;;2.37;2.23;;;6.20;99.90;;;;;;5013343;28;20927;-59
2022/11/21 08:10:57;;;;;;;4.50;2.67;;;6.10;99.90;;;;;;5012143;28;20474;-58
2022/11/21 08:13:24;;;;;;;2.83;2.30;;;6.20;99.90;;;;;;5012935;28;20497;-59
2022/11/21 08:15:52;;;;;;;2.97;2.23;;;6.20;99.90;;;;;;5012694;28;21036;-58
2022/11/21 08:18:19;;;;;;;6.90;4.20;;;6.20;99.90;;;;;;5013286;28;20510;-59
2022/11/21 08:20:47;;;;;;;2.87;2.37;;;6.20;99.90;;;;;;5013275;28;20458;-58
2022/11/21 08:23:16;;;;;;;6.03;2.87;;;6.20;99.90;;;;;;5013152;28;20517;-58
2022/11/21 08:25:44;;;;;;;2.03;1.90;;;6.20;99.90;;;;;;5012947;28;20499;-59
2022/11/21 08:28:12;;;;;;;6.63;2.93;;;6.30;99.90;;;;;;5013423;28;20529;-59
2022/11/21 08:30:40;;;;;;;5.13;3.47;;;6.30;99.90;;;;;;5012990;28;20489;-58
2022/11/21 08:33:08;;;;;;;3.17;2.40;;;6.40;99.90;;;;;;5013238;28;20478;-58
2022/11/21 08:35:38;;;;;;;13.30;3.90;;;6.50;99.90;;;;;;5013263;28;20507;-58
2022/11/21 08:38:06;;;;;;;6.53;2.80;;;6.50;99.90;;;;;;5012902;28;20869;-58
2022/11/21 08:40:35;;;;;;;6.40;3.03;;;6.60;99.90;;;;;;5015656;28;20497;-58
2022/11/21 08:43:05;;;;;;;3.30;3.00;;;6.60;99.90;;;;;;5016913;28;20474;-58
2022/11/21 08:45:32;;;;;;;9.33;2.57;;;6.70;99.90;;;;;;5016744;28;20573;-57
2022/11/21 08:48:00;;;;;;;5.23;3.00;;;6.80;99.90;;;;;;5016722;28;20447;-58
2022/11/21 08:50:28;;;;;;;3.33;2.77;;;6.90;99.90;;;;;;5016724;28;20521;-58
2022/11/21 08:53:00;;;;;;;4.23;2.23;;;7.00;99.90;;;;;;5016453;28;20533;-58
2022/11/21 08:55:27;;;;;;;4.33;2.93;;;7.10;99.90;;;;;;5016768;28;20867;-58
2022/11/21 08:57:56;;;;;;;5.00;3.20;;;7.20;99.90;;;;;;5016371;28;20466;-58
2022/11/21 09:00:23;;;;;;;6.73;3.10;;;7.10;99.90;;;;;;5016556;28;20581;-58
2022/11/21 09:02:50;;;;;;;6.27;4.10;;;7.10;99.90;;;;;;5016282;28;21003;-58
2022/11/21 09:05:18;;;;;;;5.87;2.30;;;7.20;99.90;;;;;;5016367;28;20985;-58
2022/11/21 09:07:45;;;;;;;5.60;3.10;;;7.20;99.90;;;;;;5016739;28;20459;-58
2022/11/21 09:10:13;;;;;;;3.30;2.67;;;7.30;99.90;;;;;;5016063;28;21045;-58
2022/11/21 09:12:40;;;;;;;4.87;2.87;;;7.40;99.90;;;;;;5016214;28;20490;-58
2022/11/21 09:18:04;;;;;;;5.10;2.67;;;7.70;99.90;;;;;;5016262;28;20411;-58
2022/11/21 09:20:32;;;;;;;6.50;2.40;;;7.80;99.90;;;;;;5016203;28;20526;-58
2022/11/21 09:23:04;;;;;;;3.90;2.50;;;7.80;99.90;;;;;;5016280;28;20479;-58
2022/11/21 09:25:32;;;;;;;2.67;2.10;;;7.80;99.90;;;;;;5016850;28;20471;-58
2022/11/21 09:28:00;;;;;;;3.93;2.00;;;7.90;99.90;;;;;;5015973;28;20479;-58
2022/11/21 09:30:29;;;;;;;3.97;2.70;;;7.90;99.90;;;;;;5015962;28;20443;-58
2022/11/21 09:33:01;;;;;;;4.43;2.97;;;8.10;99.90;;;;;;5015795;28;21029;-58
2022/11/21 09:35:28;;;;;;;5.13;2.60;;;8.10;99.90;;;;;;5015987;28;20475;-58
2022/11/21 09:37:56;;;;;;;3.83;3.20;;;8.30;99.90;;;;;;5016100;28;20443;-58
2022/11/21 09:40:23;;;;;;;6.30;2.67;;;8.40;99.90;;;;;;5016013;28;20487;-58
2022/11/21 09:43:13;;;;;;;2.60;2.40;;;8.60;99.90;;;;;;5015941;28;20498;-58
2022/11/21 09:45:47;;;;;;;5.57;3.73;;;8.80;99.90;;;;;;5015629;28;20505;-58
2022/11/21 09:48:18;;;;;;;3.83;2.30;;;8.80;99.90;;;;;;5015916;28;20493;-58
2022/11/21 09:50:50;;;;;;;4.23;2.67;;;8.80;99.90;;;;;;5015277;28;20474;-58
2022/11/21 09:53:22;;;;;;;4.20;1.83;;;8.90;99.90;;;;;;5015794;28;20494;-58
2022/11/21 09:55:52;;;;;;;9.63;2.17;;;9.00;99.90;;;;;;5015676;28;20492;-58
2022/11/21 09:58:29;;;;;;;6.47;2.50;;;9.10;99.90;;;;;;5015322;28;20449;-59
2022/11/21 10:00:58;;;;;;;6.20;2.20;;;9.10;99.90;;;;;;5016377;28;20435;-58
2022/11/21 10:03:30;;;;;;;12.13;2.93;;;9.10;99.90;;;;;;5015136;28;20509;-58
2022/11/21 10:06:01;;;;;;;3.20;2.07;;;9.00;99.90;;;;;;5015604;28;20479;-58
2022/11/21 10:08:41;;;;;;;7.20;2.60;;;9.00;99.90;;;;;;5015289;28;20969;-59
2022/11/21 10:11:17;;;;;;;4.37;1.97;;;8.90;99.90;;;;;;5015122;28;20850;-58
2022/11/21 10:13:59;;;;;;;5.77;2.17;;;9.00;99.90;;;;;;5015451;28;20435;-58
2022/11/21 10:16:36;;;;;;;2.70;1.80;;;9.10;99.90;;;;;;5015018;28;20509;-58
2022/11/21 10:19:29;;;;;;;6.20;2.07;;;9.00;99.90;;;;;;5015102;28;20477;-58
2022/11/21 10:22:25;;;;;;;4.13;2.00;;;9.10;99.90;;;;;;5014900;28;20432;-58
2022/11/21 10:24:58;;;;;;;5.50;2.60;;;9.30;99.90;;;;;;5008241;28;20474;-58
2022/11/21 10:27:35;;;;;;;3.67;2.10;;;9.60;99.90;;;;;;5014796;28;20891;-58
2022/11/21 10:30:05;;;;;;;4.47;2.00;;;10.10;99.90;;;;;;5016187;28;20810;-58
2022/11/21 10:32:37;;;;;;;4.50;1.80;;;;;;;;;;5014735;28;20447;-58
2022/11/21 10:35:15;;;;;;;3.00;2.23;;;11.60;99.90;;;;;;5014491;28;20509;-58
2022/11/21 10:37:48;;;;;;;5.47;2.10;;;12.60;99.90;;;;;;5014907;28;20490;-58
2022/11/21 10:40:29;;;;;;;3.00;1.93;;;13.50;99.90;;;;;;5014953;28;20471;-56
2022/11/21 10:45:14;;;;;;;2.17;1.57;;;14.20;99.90;;;;;;5014592;28;20431;-58
2022/11/21 10:45:47;;;;;;;3.63;2.07;;;14.50;99.90;;;;;;5014324;28;20554;-57
2022/11/21 10:48:15;;;;;;;5.30;2.33;;;13.60;99.90;;;;;;5014381;28;20447;-58
2022/11/21 10:51:07;;;;;;;2.60;2.03;;;12.80;99.90;;;;;;5014675;28;20451;-58
2022/11/21 10:56:22;;;;;;;3.97;2.17;;;11.60;99.90;;;;;;5014369;28;20630;-58
2022/11/21 10:58:51;;;;;;;3.63;1.93;;;11.60;99.90;;;;;;5014149;28;20519;-58
2022/11/21 11:01:27;;;;;;;6.40;2.23;;;11.70;99.90;;;;;;5014661;28;20451;-58
2022/11/21 11:04:09;;;;;;;4.20;2.50;;;;;;;;;;5013702;28;20521;-59
2022/11/21 11:06:37;;;;;;;3.00;1.80;;;10.80;99.90;;;;;;5013892;28;20498;-58
2022/11/21 11:09:05;;;;;;;6.53;2.10;;;10.60;99.90;;;;;;5013976;28;20475;-59
2022/11/21 11:11:34;;;;;;;3.50;2.00;;;10.30;99.90;;;;;;5013936;28;20485;-57
2022/11/21 11:14:02;;;;;;;4.70;2.10;;;;;;;;;;5014051;28;20513;-58
2022/11/21 11:16:31;;;;;;;7.60;2.17;;;11.00;99.90;;;;;;5013888;28;20470;-58
2022/11/21 11:19:01;;;;;;;8.50;2.30;;;11.10;99.90;;;;;;5013729;28;21001;-58
2022/11/21 11:21:43;;;;;;;4.60;2.00;;;11.10;99.90;;;;;;5013919;28;20442;-58
2022/11/21 11:24:23;;;;;;;8.83;2.20;;;11.30;99.90;;;;;;5013942;28;20582;-57
2022/11/21 11:26:55;;;;;;;3.30;2.43;;;11.90;99.90;;;;;;5014005;28;20463;-58
2022/11/21 11:29:23;;;;;;;7.97;2.87;;;11.90;99.90;;;;;;5014260;28;20943;-58
2022/11/21 11:31:56;;;;;;;5.10;2.33;;;12.00;99.90;;;;;;5013506;28;20537;-58
2022/11/21 11:34:25;;;;;;;3.60;2.30;;;12.30;99.90;;;;;;5014377;28;20592;-58
2022/11/21 11:37:10;;;;;;;5.90;2.37;;;11.80;99.90;;;;;;5013440;28;20454;-58
2022/11/21 11:39:40;;;;;;;3.20;1.70;;;11.50;99.90;;;;;;5013940;28;20499;-58
2022/11/21 11:48:20;;;;;;;2.53;1.90;;;10.70;99.90;;;;;;5013620;28;20921;-58
2022/11/21 11:50:51;;;;;;;6.20;2.30;;;10.80;99.90;;;;;;5013754;28;20485;-58
2022/11/21 11:53:23;;;;;;;4.00;2.00;;;11.00;99.90;;;;;;5013805;28;20459;-58
2022/11/21 11:55:53;;;;;;;3.93;2.03;;;11.20;99.90;;;;;;5013558;28;21032;-58
2022/11/21 11:58:27;;;;;;;3.20;1.87;;;11.60;99.90;;;;;;5013855;28;20482;-58
2022/11/21 12:01:03;;;;;;;2.60;1.80;;;11.60;99.90;;;;;;5013794;28;20526;-58
2022/11/21 12:03:40;;;;;;;2.80;2.17;;;11.40;99.90;;;;;;5013576;28;20477;-59
2022/11/21 12:06:14;;;;;;;5.97;1.70;;;10.90;99.90;;;;;;5013581;28;20978;-58
2022/11/21 12:08:51;;;;;;;5.20;1.90;;;10.90;99.90;;;;;;5013569;28;20844;-58
2022/11/21 12:17:05;;;;;;;4.03;2.03;;;10.50;99.90;;;;;;5017155;28;20438;-58
2022/11/21 12:19:34;;;;;;;3.07;2.30;;;10.40;99.90;;;;;;5017318;28;20546;-58
2022/11/21 12:22:05;;;;;;;4.57;2.17;;;10.20;99.90;;;;;;5017111;28;20458;-58
2022/11/21 12:24:34;;;;;;;2.37;2.03;;;10.50;99.90;;;;;;5017097;28;20442;-58
2022/11/21 12:27:15;;;;;;;6.03;1.80;;;10.30;99.90;;;;;;5016886;28;20451;-58
2022/11/21 12:29:57;;;;;;;4.73;2.60;;;10.20;99.90;;;;;;5017363;28;20462;-58
2022/11/21 12:32:38;;;;;;;4.70;1.70;;;10.10;99.90;;;;;;5017377;28;20481;-58
2022/11/21 12:35:27;;;;;;;3.73;2.17;;;10.20;99.90;;;;;;5016925;28;20485;-58
2022/11/21 12:38:05;;;;;;;5.50;2.20;;;10.20;99.90;;;;;;5017237;28;20431;-58
2022/11/21 12:40:48;;;;;;;2.17;1.97;;;10.20;99.90;;;;;;5016860;28;20885;-59
2022/11/21 12:43:24;;;;;;;2.10;1.90;;;10.20;99.90;;;;;;5016898;28;20514;-58
2022/11/21 12:45:56;;;;;;;2.63;1.80;;;10.50;99.90;;;;;;5016451;28;20516;-58
2022/11/21 12:55:02;;;;;;;2.30;1.53;;;10.90;99.90;;;;;;5016350;28;20485;-58
2022/11/21 12:57:39;;;;;;;2.50;2.20;;;11.10;99.90;;;;;;5016661;28;20459;-58
2022/11/21 13:00:15;;;;;;;9.47;3.10;;;10.80;99.90;;;;;;5016280;28;20469;-58
2022/11/21 13:03:22;;;;;;;1.97;1.77;;;10.70;99.90;;;;;;5016525;28;20466;-58
2022/11/21 13:05:52;;;;;;;2.40;1.77;;;10.60;99.90;;;;;;5016795;28;20475;-58
2022/11/21 13:08:23;;;;;;;5.83;3.30;;;10.50;99.90;;;;;;5016222;28;20439;-58
2022/11/21 13:11:57;;;;;;;6.40;2.30;;;10.80;99.90;;;;;;5016061;28;20529;-58
2022/11/21 13:13:55;;;;;;;3.90;1.80;;;11.00;99.90;;;;;;5015936;28;20443;-58
2022/11/21 13:16:36;;;;;;;2.43;1.70;;;11.40;99.90;;;;;;5016516;28;20510;-58
2022/11/21 13:19:16;;;;;;;6.70;2.13;;;11.70;99.90;;;;;;5016117;28;20518;-58
2022/11/21 13:21:46;;;;;;;3.67;2.23;;;12.00;99.90;;;;;;5016014;28;20466;-58
2022/11/21 13:24:51;;;;;;;4.80;2.37;;;12.30;99.90;;;;;;5015798;28;20511;-59
2022/11/21 13:27:29;;;;;;;5.03;2.00;;;12.10;99.90;;;;;;5015719;28;20825;-58
2022/11/21 13:30:20;;;;;;;3.33;1.87;;;11.70;99.90;;;;;;5016045;28;20451;-57
2022/11/21 13:32:49;;;;;;;4.13;2.23;;;11.30;99.90;;;;;;5015892;28;20455;-57
2022/11/21 13:36:05;;;;;;;5.73;1.90;;;11.10;99.90;;;;;;5015506;28;20997;-57
2022/11/21 13:39:07;;;;;;;1.83;1.57;;;11.00;99.90;;;;;;5015678;28;20427;-58
2022/11/21 13:44:51;;;;;;;2.70;2.20;;;11.00;99.90;;;;;;5015269;28;20534;-58
2022/11/21 13:47:50;;;;;;;6.00;2.73;;;10.80;99.90;;;;;;5015428;28;20459;-58